createdAt,value
2022-11-30T00:01:17.274Z,101819.13
2022-11-30T00:03:43.679Z,101812.63
2022-11-30T00:06:13.628Z,101815.56
2022-11-30T00:08:40.255Z,101815.75
2022-11-30T00:11:12.704Z,101818.53
2022-11-30T00:13:39.316Z,101825.56
2022-11-30T00:16:06.152Z,101818.75
2022-11-30T00:18:32.432Z,101821.63
2022-11-30T00:21:00.666Z,101823.38
2022-11-30T00:23:34.168Z,101834.97
2022-11-30T00:26:06.187Z,101836.22
2022-11-30T00:28:33.378Z,101837.69
2022-11-30T00:31:01.953Z,101833.47
2022-11-30T00:33:28.589Z,101826.59
2022-11-30T00:35:59.741Z,101835.78
2022-11-30T00:38:28.018Z,101827.00
2022-11-30T00:40:55.863Z,101837.59
2022-11-30T00:43:22.203Z,101833.81
2022-11-30T00:45:48.763Z,101830.88
2022-11-30T00:48:14.973Z,101831.22
2022-11-30T00:50:41.455Z,101834.78
2022-11-30T00:53:07.588Z,101837.63
2022-11-30T00:55:34.136Z,101839.44
2022-11-30T00:58:00.599Z,101842.22
2022-11-30T01:00:28.214Z,101849.56
2022-11-30T01:02:55.843Z,101852.09
2022-11-30T01:05:22.308Z,101855.31
2022-11-30T01:07:48.418Z,101852.22
2022-11-30T01:10:15.060Z,101857.69
2022-11-30T01:12:41.269Z,101863.22
2022-11-30T01:15:08.331Z,101858.63
2022-11-30T01:17:34.525Z,101849.97
2022-11-30T01:20:00.863Z,101860.56
2022-11-30T01:22:27.134Z,101861.59
2022-11-30T01:24:53.542Z,101870.59
2022-11-30T01:27:19.832Z,101862.09
2022-11-30T01:29:46.225Z,101869.72
2022-11-30T01:32:12.281Z,101873.00
2022-11-30T01:34:38.644Z,101880.13
2022-11-30T01:37:04.736Z,101876.13
2022-11-30T01:39:31.118Z,101873.38
2022-11-30T01:41:57.204Z,101880.03
2022-11-30T01:44:26.214Z,101872.75
2022-11-30T01:46:57.486Z,101881.22
2022-11-30T01:49:28.472Z,101886.69
2022-11-30T01:52:20.463Z,101874.88
2022-11-30T01:54:55.222Z,101881.41
2022-11-30T01:57:44.250Z,101872.81
2022-11-30T02:00:13.131Z,101885.91
2022-11-30T02:03:02.153Z,101866.84
2022-11-30T02:05:30.683Z,101889.25
2022-11-30T02:07:56.988Z,101877.06
2022-11-30T02:10:29.409Z,101887.59
2022-11-30T02:13:10.404Z,101884.63
2022-11-30T02:15:50.917Z,101884.38
2022-11-30T02:18:27.528Z,101882.66
2022-11-30T02:21:13.222Z,101885.75
2022-11-30T02:24:00.015Z,101887.13
2022-11-30T02:26:38.558Z,101886.16
2022-11-30T02:29:26.558Z,101877.16
2022-11-30T02:32:04.674Z,101883.97
2022-11-30T02:34:34.263Z,101874.34
2022-11-30T02:37:02.750Z,101885.53
2022-11-30T02:39:28.876Z,101886.66
2022-11-30T02:41:55.240Z,101896.28
2022-11-30T02:44:22.208Z,101884.47
2022-11-30T02:47:07.351Z,101894.59
2022-11-30T02:49:48.029Z,101891.72
2022-11-30T02:52:15.537Z,101883.25
2022-11-30T02:54:41.767Z,101891.16
2022-11-30T02:57:08.730Z,101889.41
2022-11-30T02:59:35.262Z,101889.66
2022-11-30T03:02:01.738Z,101890.34
2022-11-30T03:04:27.836Z,101891.31
2022-11-30T03:06:54.271Z,101894.16
2022-11-30T03:09:20.526Z,101897.28
2022-11-30T03:11:46.882Z,101897.28
2022-11-30T03:14:12.913Z,101897.59
2022-11-30T03:16:39.362Z,101893.41
2022-11-30T03:19:06.122Z,101899.84
2022-11-30T03:21:32.555Z,101898.81
2022-11-30T03:23:58.668Z,101903.06
2022-11-30T03:26:25.013Z,101897.63
2022-11-30T03:28:51.061Z,101903.22
2022-11-30T03:31:17.608Z,101900.44
2022-11-30T03:33:43.777Z,101904.25
2022-11-30T03:36:11.769Z,101913.00
2022-11-30T03:38:38.338Z,101910.38
2022-11-30T03:41:08.064Z,101903.03
2022-11-30T03:43:34.207Z,101901.34
2022-11-30T03:46:00.814Z,101916.63
2022-11-30T03:48:27.078Z,101916.47
2022-11-30T03:50:53.565Z,101922.16
2022-11-30T03:53:21.524Z,101917.72
2022-11-30T03:55:52.739Z,101919.25
2022-11-30T03:58:18.972Z,101922.44
2022-11-30T04:00:45.333Z,101914.72
2022-11-30T04:03:11.646Z,101922.84
2022-11-30T04:05:38.130Z,101921.88
2022-11-30T04:08:04.314Z,101921.25
2022-11-30T04:10:30.688Z,101923.69
2022-11-30T04:12:56.839Z,101913.53
2022-11-30T04:15:23.245Z,101920.16
2022-11-30T04:17:49.372Z,101919.91
2022-11-30T04:20:16.185Z,101918.53
2022-11-30T04:22:42.323Z,101927.47
2022-11-30T04:25:08.912Z,101916.47
2022-11-30T04:27:35.016Z,101923.81
2022-11-30T04:30:01.438Z,101917.88
2022-11-30T04:32:27.562Z,101923.06
2022-11-30T04:34:54.045Z,101917.13
2022-11-30T04:37:20.110Z,101916.34
2022-11-30T04:39:46.566Z,101917.47
2022-11-30T04:42:12.786Z,101929.22
2022-11-30T04:44:39.525Z,101931.09
2022-11-30T04:47:05.630Z,101928.16
2022-11-30T04:49:32.370Z,101937.94
2022-11-30T04:51:58.706Z,101931.97
2022-11-30T04:54:25.448Z,101932.59
2022-11-30T04:56:51.712Z,101940.63
2022-11-30T04:59:18.623Z,101942.34
2022-11-30T05:01:44.925Z,101944.88
2022-11-30T05:04:11.906Z,101952.44
2022-11-30T05:06:38.106Z,101949.78
2022-11-30T05:09:04.584Z,101950.06
2022-11-30T05:11:30.726Z,101969.97
2022-11-30T05:13:57.104Z,101951.59
2022-11-30T05:16:23.267Z,101958.91
2022-11-30T05:18:49.687Z,101970.19
2022-11-30T05:21:17.121Z,101968.84
2022-11-30T05:23:43.486Z,101970.81
2022-11-30T05:26:09.563Z,101970.22
2022-11-30T05:28:36.147Z,101977.03
2022-11-30T05:31:05.737Z,101982.81
2022-11-30T05:33:32.887Z,101985.09
2022-11-30T05:35:58.970Z,101978.84
2022-11-30T05:38:25.328Z,101979.25
2022-11-30T05:40:51.448Z,101985.41
2022-11-30T05:43:18.188Z,101980.44
2022-11-30T05:45:44.293Z,102000.00
2022-11-30T05:48:10.663Z,101989.69
2022-11-30T05:50:36.912Z,102001.13
2022-11-30T05:53:03.332Z,102001.75
2022-11-30T05:55:30.378Z,102002.94
2022-11-30T05:57:56.810Z,102001.06
2022-11-30T06:00:23.254Z,102000.50
2022-11-30T06:02:55.591Z,102006.03
2022-11-30T06:05:21.871Z,101997.75
2022-11-30T06:07:48.304Z,101999.94
2022-11-30T06:10:14.779Z,102000.97
2022-11-30T06:12:41.169Z,102007.03
2022-11-30T06:15:08.174Z,102005.16
2022-11-30T06:17:37.189Z,102011.31
2022-11-30T06:20:07.213Z,102007.28
2022-11-30T06:22:33.629Z,102012.25
2022-11-30T06:25:00.221Z,102012.88
2022-11-30T06:27:30.568Z,102015.53
2022-11-30T06:29:57.226Z,102011.72
2022-11-30T06:32:23.654Z,102022.28
2022-11-30T06:34:49.915Z,102028.03
2022-11-30T06:37:17.152Z,102027.50
2022-11-30T06:40:05.283Z,102031.59
2022-11-30T06:42:30.687Z,102020.00
2022-11-30T06:44:56.851Z,102027.84
2022-11-30T06:47:23.651Z,102041.28
2022-11-30T06:49:49.745Z,102033.47
2022-11-30T06:52:16.566Z,102026.09
2022-11-30T06:54:42.923Z,102032.59
2022-11-30T06:57:09.387Z,102027.81
2022-11-30T06:59:41.663Z,102028.25
2022-11-30T07:02:17.481Z,102047.22
2022-11-30T07:04:45.023Z,102045.75
2022-11-30T07:07:11.714Z,102042.78
2022-11-30T07:09:37.942Z,102053.88
2022-11-30T07:12:05.077Z,102057.41
2022-11-30T07:14:31.405Z,102053.78
2022-11-30T07:16:57.825Z,102052.72
2022-11-30T07:19:24.044Z,102048.38
2022-11-30T07:21:50.532Z,102052.75
2022-11-30T07:24:35.395Z,102053.31
2022-11-30T07:27:03.462Z,102059.91
2022-11-30T07:29:29.786Z,102059.31
2022-11-30T07:31:56.382Z,102059.31
2022-11-30T07:34:22.640Z,102057.44
2022-11-30T07:36:49.295Z,102053.50
2022-11-30T07:39:15.655Z,102061.25
2022-11-30T07:41:42.469Z,102065.03
2022-11-30T07:44:11.057Z,102067.34
2022-11-30T07:46:38.130Z,102072.19
2022-11-30T07:49:06.692Z,102064.22
2022-11-30T07:51:33.687Z,102068.56
2022-11-30T07:54:00.161Z,102073.06
2022-11-30T07:56:27.807Z,102068.94
2022-11-30T07:58:59.340Z,102068.94
2022-11-30T08:01:28.737Z,102077.91
2022-11-30T08:03:55.217Z,102067.34
2022-11-30T08:06:24.826Z,102065.94
2022-11-30T08:08:53.076Z,102069.66
2022-11-30T08:11:24.863Z,102070.81
2022-11-30T08:13:51.973Z,102069.28
2022-11-30T08:16:24.115Z,102064.84
2022-11-30T08:18:50.817Z,102075.34
2022-11-30T08:21:19.901Z,102074.34
2022-11-30T08:23:52.033Z,102072.09
2022-11-30T08:26:21.169Z,102080.22
2022-11-30T08:28:49.314Z,102074.97
2022-11-30T08:31:38.777Z,102074.00
2022-11-30T08:34:07.578Z,102088.91
2022-11-30T08:36:34.711Z,102086.09
2022-11-30T08:39:04.279Z,102094.28
2022-11-30T08:41:31.196Z,102098.53
2022-11-30T08:43:57.615Z,102106.19
2022-11-30T08:49:26.313Z,102106.06
2022-11-30T08:54:45.938Z,102119.56
2022-11-30T08:57:18.259Z,102117.41
2022-11-30T08:59:44.900Z,102117.97
2022-11-30T09:02:13.895Z,102117.88
2022-11-30T09:04:41.029Z,102111.66
2022-11-30T09:07:08.809Z,102119.84
2022-11-30T09:09:36.206Z,102114.34
2022-11-30T09:12:02.588Z,102107.88
2022-11-30T09:14:28.991Z,102124.38
2022-11-30T09:16:55.131Z,102114.66
2022-11-30T09:19:21.564Z,102113.97
2022-11-30T09:21:51.836Z,102119.84
2022-11-30T09:24:20.212Z,102124.81
2022-11-30T09:26:46.400Z,102116.47
2022-11-30T09:29:12.795Z,102130.28
2022-11-30T09:31:38.848Z,102123.47
2022-11-30T09:34:05.230Z,102119.84
2022-11-30T09:36:33.148Z,102115.94
2022-11-30T09:38:59.516Z,102125.03
2022-11-30T09:41:40.776Z,102132.13
2022-11-30T09:44:35.796Z,102132.28
2022-11-30T09:47:21.329Z,102115.34
2022-11-30T09:49:48.020Z,102121.44
2022-11-30T09:52:25.722Z,102117.63
2022-11-30T09:54:52.900Z,102123.25
2022-11-30T09:57:29.646Z,102122.38
2022-11-30T09:59:59.292Z,102115.59
2022-11-30T10:02:31.759Z,102120.59
2022-11-30T10:05:00.413Z,102122.28
2022-11-30T10:07:43.603Z,102122.31
2022-11-30T10:10:35.914Z,102121.97
2022-11-30T10:13:21.329Z,102116.22
2022-11-30T10:16:06.405Z,102121.44
2022-11-30T10:18:38.984Z,102119.94
2022-11-30T10:21:33.573Z,102122.47
2022-11-30T10:24:05.829Z,102121.84
2022-11-30T10:26:34.988Z,102115.78
2022-11-30T10:29:16.834Z,102117.06
2022-11-30T10:31:46.779Z,102121.69
2022-11-30T10:34:22.246Z,102122.13
2022-11-30T10:37:16.151Z,102131.16
2022-11-30T10:39:55.134Z,102128.63
2022-11-30T10:42:32.199Z,102124.09
2022-11-30T10:45:19.385Z,102114.66
2022-11-30T10:47:53.700Z,102117.31
2022-11-30T10:50:23.724Z,102115.28
2022-11-30T10:52:56.298Z,102122.00
2022-11-30T10:55:39.263Z,102109.72
2022-11-30T10:58:20.878Z,102111.28
2022-11-30T11:01:00.100Z,102110.28
2022-11-30T11:03:27.058Z,102105.66
2022-11-30T11:06:14.804Z,102109.13
2022-11-30T11:08:44.680Z,102110.53
2022-11-30T11:11:36.040Z,102111.81
2022-11-30T11:14:32.369Z,102115.88
2022-11-30T11:17:21.115Z,102117.53
2022-11-30T11:19:49.204Z,102114.56
2022-11-30T11:22:19.281Z,102113.97
2022-11-30T11:24:48.083Z,102115.44
2022-11-30T11:27:22.136Z,102114.88
2022-11-30T11:30:00.574Z,102114.63
2022-11-30T11:32:27.253Z,102110.69
2022-11-30T11:34:54.016Z,102108.41
2022-11-30T11:37:30.403Z,102112.56
2022-11-30T11:39:59.980Z,102116.84
2022-11-30T11:42:30.771Z,102114.88
2022-11-30T11:44:59.175Z,102117.94
2022-11-30T11:47:27.190Z,102110.28
2022-11-30T11:53:22.333Z,102120.59
2022-11-30T11:55:57.985Z,102118.19
2022-11-30T11:58:34.706Z,102112.25
2022-11-30T12:01:38.266Z,102114.38
2022-11-30T12:03:55.564Z,102118.63
2022-11-30T12:06:23.135Z,102117.03
2022-11-30T12:08:58.999Z,102120.09
2022-11-30T12:11:32.512Z,102121.47
2022-11-30T12:14:01.069Z,102121.91
2022-11-30T12:16:30.916Z,102127.19
2022-11-30T12:19:15.083Z,102124.22
2022-11-30T12:22:03.183Z,102119.28
2022-11-30T12:24:38.535Z,102117.84
2022-11-30T12:27:54.587Z,102122.47
2022-11-30T12:31:10.985Z,102130.75
2022-11-30T12:33:43.513Z,102137.25
2022-11-30T12:36:16.202Z,102133.63
2022-11-30T12:39:04.919Z,102138.34
2022-11-30T12:41:42.197Z,102136.03
2022-11-30T12:44:29.064Z,102132.19
2022-11-30T12:47:36.182Z,102132.97
2022-11-30T12:50:41.224Z,102135.44
2022-11-30T12:53:25.084Z,102132.84
2022-11-30T12:56:16.542Z,102135.00
2022-11-30T12:58:50.197Z,102136.59
2022-11-30T13:01:36.300Z,102141.03
2022-11-30T13:04:28.760Z,102138.78
2022-11-30T13:07:12.315Z,102137.31
2022-11-30T13:09:48.573Z,102136.16
2022-11-30T13:12:36.607Z,102130.22
2022-11-30T13:15:09.811Z,102138.41
2022-11-30T13:17:42.515Z,102134.19
2022-11-30T13:20:30.741Z,102125.66
2022-11-30T13:23:33.336Z,102121.66
2022-11-30T13:26:24.561Z,102124.56
2022-11-30T13:29:15.574Z,102126.53
2022-11-30T13:31:53.281Z,102137.09
2022-11-30T13:34:26.555Z,102130.22
2022-11-30T13:37:28.061Z,102138.50
2022-11-30T13:39:57.713Z,102136.97
2022-11-30T13:42:40.486Z,102135.88
2022-11-30T13:45:13.057Z,102142.38
2022-11-30T13:47:52.162Z,102133.41
2022-11-30T13:50:30.778Z,102136.88
2022-11-30T13:52:56.956Z,102139.94
2022-11-30T13:55:35.781Z,102145.78
2022-11-30T13:58:06.683Z,102149.94
2022-11-30T14:00:33.113Z,102158.47
2022-11-30T14:03:25.232Z,102159.00
2022-11-30T14:05:57.233Z,102160.22
2022-11-30T14:08:23.400Z,102161.53
2022-11-30T14:10:50.788Z,102156.44
2022-11-30T14:13:19.355Z,102153.97
2022-11-30T14:15:45.903Z,102158.91
2022-11-30T14:18:18.188Z,102157.31
2022-11-30T14:20:49.940Z,102162.63
2022-11-30T14:23:52.898Z,102149.81
2022-11-30T14:26:37.147Z,102155.44
2022-11-30T14:29:06.928Z,102161.75
2022-11-30T14:31:42.555Z,102155.72
2022-11-30T14:34:26.612Z,102154.94
2022-11-30T14:37:25.175Z,102168.44
2022-11-30T14:39:56.218Z,102157.41
2022-11-30T14:42:24.408Z,102155.66
2022-11-30T14:44:50.943Z,102162.34
2022-11-30T14:47:30.537Z,102164.00
2022-11-30T14:50:00.998Z,102164.22
2022-11-30T14:52:43.662Z,102172.44
2022-11-30T14:55:28.529Z,102172.25
2022-11-30T14:58:20.081Z,102165.59
2022-11-30T15:00:47.623Z,102164.72
2022-11-30T15:03:24.545Z,102171.09
2022-11-30T15:05:54.292Z,102176.59
2022-11-30T15:08:23.527Z,102179.22
2022-11-30T15:10:50.409Z,102178.25
2022-11-30T15:13:19.253Z,102183.69
2022-11-30T15:15:53.940Z,102179.34
2022-11-30T15:18:23.288Z,102190.66
2022-11-30T15:21:03.480Z,102188.97
2022-11-30T15:23:30.613Z,102180.94
2022-11-30T15:26:06.128Z,102179.50
2022-11-30T15:28:38.756Z,102187.06
2022-11-30T15:31:10.170Z,102191.28
2022-11-30T15:33:41.984Z,102194.59
2022-11-30T15:36:32.973Z,102193.53
2022-11-30T15:38:55.927Z,102181.50
2022-11-30T15:41:24.789Z,102192.09
2022-11-30T15:43:53.842Z,102182.44
2022-11-30T15:46:44.582Z,102192.22
2022-11-30T15:49:28.645Z,102189.88
2022-11-30T15:52:16.280Z,102195.44
2022-11-30T15:54:46.095Z,102181.06
2022-11-30T15:57:13.511Z,102187.47
2022-11-30T15:59:40.443Z,102187.56
2022-11-30T16:02:27.255Z,102192.06
2022-11-30T16:04:57.652Z,102186.56
2022-11-30T16:07:28.044Z,102188.50
2022-11-30T16:10:21.759Z,102190.84
2022-11-30T16:12:50.564Z,102198.88
2022-11-30T16:15:30.066Z,102195.72
2022-11-30T16:18:11.710Z,102201.72
2022-11-30T16:20:40.722Z,102193.56
2022-11-30T16:23:13.752Z,102198.91
2022-11-30T16:25:41.967Z,102195.19
2022-11-30T16:28:09.637Z,102194.03
2022-11-30T16:30:38.394Z,102193.19
2022-11-30T16:33:07.699Z,102190.06
2022-11-30T16:35:48.087Z,102199.00
2022-11-30T16:38:14.468Z,102192.84
2022-11-30T16:40:41.166Z,102201.66
2022-11-30T16:43:10.996Z,102201.84
2022-11-30T16:45:39.494Z,102188.47
2022-11-30T16:48:10.024Z,102195.94
2022-11-30T16:50:38.219Z,102188.56
2022-11-30T16:53:04.966Z,102197.19
2022-11-30T16:55:34.372Z,102196.16
2022-11-30T16:58:01.218Z,102198.34
2022-11-30T17:00:28.156Z,102203.75
2022-11-30T17:02:54.454Z,102199.19
2022-11-30T17:05:21.093Z,102190.34
2022-11-30T17:07:47.700Z,102187.00
2022-11-30T17:10:14.309Z,102190.66
2022-11-30T17:12:41.283Z,102199.28
2022-11-30T17:15:18.748Z,102199.94
2022-11-30T17:17:45.060Z,102202.97
2022-11-30T17:20:13.585Z,102205.88
2022-11-30T17:22:40.662Z,102209.03
2022-11-30T17:25:12.657Z,102209.75
2022-11-30T17:27:39.013Z,102216.75
2022-11-30T17:30:06.382Z,102213.72
2022-11-30T17:32:33.159Z,102216.69
2022-11-30T17:34:59.918Z,102211.66
2022-11-30T17:37:26.509Z,102226.59
2022-11-30T17:39:53.204Z,102215.41
2022-11-30T17:42:19.507Z,102230.28
2022-11-30T17:44:47.543Z,102233.91
2022-11-30T17:47:13.927Z,102229.84
2022-11-30T17:49:43.839Z,102234.97
2022-11-30T17:52:10.171Z,102225.94
2022-11-30T17:54:36.694Z,102231.53
2022-11-30T17:57:03.446Z,102232.31
2022-11-30T17:59:30.012Z,102233.41
2022-11-30T18:01:56.668Z,102238.47
2022-11-30T18:04:23.388Z,102236.56
2022-11-30T18:06:49.783Z,102243.41
2022-11-30T18:09:16.628Z,102241.53
2022-11-30T18:11:43.067Z,102245.00
2022-11-30T18:14:10.057Z,102253.00
2022-11-30T18:16:36.613Z,102249.06
2022-11-30T18:19:11.801Z,102249.47
2022-11-30T18:21:39.648Z,102255.34
2022-11-30T18:24:06.855Z,102256.31
2022-11-30T18:26:34.992Z,102262.06
2022-11-30T18:29:06.536Z,102261.25
2022-11-30T18:31:35.952Z,102265.56
2022-11-30T18:34:05.662Z,102268.63
2022-11-30T18:36:33.388Z,102261.25
2022-11-30T18:39:00.375Z,102264.22
2022-11-30T18:41:29.434Z,102269.50
2022-11-30T18:43:57.282Z,102269.50
2022-11-30T18:46:26.017Z,102274.66
2022-11-30T18:48:55.674Z,102280.16
2022-11-30T18:51:25.432Z,102283.50
2022-11-30T18:53:57.853Z,102284.59
2022-11-30T18:56:25.623Z,102283.03
2022-11-30T18:59:01.213Z,102290.38
2022-11-30T19:01:28.653Z,102294.84
2022-11-30T19:03:57.982Z,102283.41
2022-11-30T19:06:27.707Z,102280.38
2022-11-30T19:08:57.953Z,102289.22
2022-11-30T19:11:25.226Z,102287.91
2022-11-30T19:13:56.857Z,102290.09
2022-11-30T19:16:24.711Z,102289.00
2022-11-30T19:18:56.605Z,102291.00
2022-11-30T19:21:23.566Z,102286.59
2022-11-30T19:23:50.161Z,102292.81
2022-11-30T19:26:17.034Z,102292.47
2022-11-30T19:28:44.899Z,102297.78
2022-11-30T19:31:14.414Z,102298.66
2022-11-30T19:33:42.949Z,102296.69
2022-11-30T19:36:18.273Z,102298.44
2022-11-30T19:38:45.308Z,102299.94
2022-11-30T19:41:14.147Z,102301.03
2022-11-30T19:43:40.904Z,102304.44
2022-11-30T19:46:15.383Z,102309.72
2022-11-30T19:48:43.684Z,102306.59
2022-11-30T19:51:18.313Z,102313.94
2022-11-30T19:53:45.349Z,102303.69
2022-11-30T19:56:14.764Z,102310.81
2022-11-30T19:58:43.376Z,102310.66
2022-11-30T20:01:19.262Z,102311.34
2022-11-30T20:03:45.893Z,102315.03
2022-11-30T20:06:12.298Z,102308.16
2022-11-30T20:08:41.417Z,102309.16
2022-11-30T20:11:09.883Z,102320.47
2022-11-30T20:13:37.222Z,102312.00
2022-11-30T20:16:22.431Z,102333.44
2022-11-30T20:19:00.473Z,102326.03
2022-11-30T20:21:32.746Z,102322.72
2022-11-30T20:24:03.721Z,102329.69
2022-11-30T20:26:41.107Z,102334.47
2022-11-30T20:29:12.473Z,102329.25
2022-11-30T20:31:39.695Z,102331.72
2022-11-30T20:34:07.552Z,102329.88
2022-11-30T20:36:34.599Z,102333.88
2022-11-30T20:39:02.257Z,102332.13
2022-11-30T20:41:28.710Z,102330.72
2022-11-30T20:43:56.261Z,102328.38
2022-11-30T20:46:27.083Z,102325.22
2022-11-30T20:48:54.387Z,102328.28
2022-11-30T20:51:32.027Z,102323.94
2022-11-30T20:54:01.662Z,102331.03
2022-11-30T20:56:28.376Z,102330.66
2022-11-30T20:58:55.086Z,102330.09
2022-11-30T21:01:22.428Z,102332.84
2022-11-30T21:03:49.437Z,102321.25
2022-11-30T21:06:15.812Z,102324.94
2022-11-30T21:08:43.036Z,102323.16
2022-11-30T21:11:15.636Z,102326.47
2022-11-30T21:13:43.734Z,102323.66
2022-11-30T21:16:13.847Z,102321.88
2022-11-30T21:18:43.309Z,102323.81
2022-11-30T21:21:15.716Z,102324.44
2022-11-30T21:23:43.295Z,102324.81
2022-11-30T21:26:36.932Z,102314.09
2022-11-30T21:29:09.464Z,102318.06
2022-11-30T21:31:35.699Z,102321.81
2022-11-30T21:34:03.300Z,102318.34
2022-11-30T21:36:29.672Z,102311.03
2022-11-30T21:39:05.067Z,102306.25
2022-11-30T21:41:33.186Z,102314.47
2022-11-30T21:44:00.009Z,102307.34
2022-11-30T21:46:26.282Z,102315.19
2022-11-30T21:48:53.028Z,102310.53
2022-11-30T21:51:22.116Z,102308.38
2022-11-30T21:53:52.519Z,102309.66
2022-11-30T21:56:22.131Z,102300.25
2022-11-30T21:58:49.832Z,102308.38
2022-11-30T22:01:25.962Z,102306.34
2022-11-30T22:03:55.703Z,102311.91
2022-11-30T22:06:24.319Z,102304.84
2022-11-30T22:08:51.101Z,102295.66
2022-11-30T22:11:22.347Z,102311.97
2022-11-30T22:13:52.956Z,102305.50
2022-11-30T22:16:21.096Z,102303.84
2022-11-30T22:18:50.830Z,102306.38
2022-11-30T22:21:19.349Z,102300.78
2022-11-30T22:23:51.955Z,102302.81
2022-11-30T22:26:24.319Z,102308.50
2022-11-30T22:28:54.037Z,102299.00
2022-11-30T22:31:22.343Z,102298.06
2022-11-30T22:33:49.455Z,102302.34
2022-11-30T22:36:18.922Z,102307.50
2022-11-30T22:38:46.235Z,102304.72
2022-11-30T22:41:15.196Z,102309.22
2022-11-30T22:43:42.702Z,102300.22
2022-11-30T22:46:15.524Z,102302.97
2022-11-30T22:48:42.866Z,102306.97
2022-11-30T22:51:12.025Z,102301.75
2022-11-30T22:53:39.599Z,102301.00
2022-11-30T22:56:24.030Z,102295.91
2022-11-30T22:58:53.469Z,102307.91
2022-11-30T23:01:24.641Z,102300.63
2022-11-30T23:03:55.659Z,102302.94
2022-11-30T23:06:24.767Z,102293.06
2022-11-30T23:08:51.679Z,102292.25
2022-11-30T23:11:23.128Z,102289.50
2022-11-30T23:13:50.182Z,102282.53
2022-11-30T23:16:16.891Z,102283.63
2022-11-30T23:18:53.888Z,102291.09
2022-11-30T23:21:25.801Z,102288.25
2022-11-30T23:23:54.702Z,102291.16
2022-11-30T23:26:23.572Z,102285.16
2022-11-30T23:28:52.111Z,102285.53
2022-11-30T23:31:34.036Z,102283.72
2022-11-30T23:34:07.933Z,102285.31
2022-11-30T23:36:34.904Z,102283.09
2022-11-30T23:39:09.401Z,102269.81
2022-11-30T23:41:35.809Z,102277.56
2022-11-30T23:44:02.290Z,102280.09
2022-11-30T23:46:28.971Z,102278.03
2022-11-30T23:48:55.989Z,102277.25
2022-11-30T23:51:22.947Z,102278.19
2022-11-30T23:53:49.321Z,102281.75
2022-11-30T23:56:17.752Z,102273.63
2022-11-30T23:58:44.517Z,102273.47
